sensor_id;sensor_type;location;lat;lon;timestamp;pressure;altitude;pressure_sealevel;temperature;humidity
60089;BME280;45961;53.574;55.878;2023-03-04T00:00:29;99178.91;;;-2.79;82.94
60089;BME280;45961;53.574;55.878;2023-03-04T00:01:30;99200.41;;;-2.69;83.25
60089;BME280;45961;53.574;55.878;2023-03-04T00:02:31;99194.28;;;-2.75;83.37
60089;BME280;45961;53.574;55.878;2023-03-04T00:03:33;99194.63;;;-2.67;83.54
60089;BME280;45961;53.574;55.878;2023-03-04T00:04:33;99202.19;;;-2.68;83.35
60089;BME280;45961;53.574;55.878;2023-03-04T00:05:35;99196.31;;;-2.67;83.56
60089;BME280;45961;53.574;55.878;2023-03-04T00:06:36;99197.31;;;-2.64;83.63
60089;BME280;45961;53.574;55.878;2023-03-04T00:07:37;99194.13;;;-2.60;83.62
60089;BME280;45961;53.574;55.878;2023-03-04T00:08:38;99199.44;;;-2.54;83.70
60089;BME280;45961;53.574;55.878;2023-03-04T00:09:39;99190.19;;;-2.53;83.58
60089;BME280;45961;53.574;55.878;2023-03-04T00:10:40;99205.03;;;-2.41;83.31
60089;BME280;45961;53.574;55.878;2023-03-04T00:11:41;99209.19;;;-2.43;83.43
60089;BME280;45961;53.574;55.878;2023-03-04T00:12:42;99204.00;;;-2.46;83.46
60089;BME280;45961;53.574;55.878;2023-03-04T00:13:42;99213.59;;;-2.39;83.22
60089;BME280;45961;53.574;55.878;2023-03-04T00:14:43;99215.19;;;-2.41;83.38
60089;BME280;45961;53.574;55.878;2023-03-04T00:15:44;99201.75;;;-2.40;83.37
60089;BME280;45961;53.574;55.878;2023-03-04T00:16:45;99207.06;;;-2.34;83.24
60089;BME280;45961;53.574;55.878;2023-03-04T00:17:48;99214.66;;;-2.34;83.24
60089;BME280;45961;53.574;55.878;2023-03-04T00:18:49;99207.91;;;-2.34;83.13
60089;BME280;45961;53.574;55.878;2023-03-04T00:19:50;99205.59;;;-2.29;83.22
60089;BME280;45961;53.574;55.878;2023-03-04T00:20:51;99209.06;;;-2.27;83.27
60089;BME280;45961;53.574;55.878;2023-03-04T00:21:52;99209.22;;;-2.24;83.17
60089;BME280;45961;53.574;55.878;2023-03-04T00:22:53;99210.94;;;-2.23;83.07
60089;BME280;45961;53.574;55.878;2023-03-04T00:23:55;99203.19;;;-2.26;83.14
60089;BME280;45961;53.574;55.878;2023-03-04T00:24:56;99209.88;;;-2.28;83.17
60089;BME280;45961;53.574;55.878;2023-03-04T00:25:57;99206.06;;;-2.18;83.38
60089;BME280;45961;53.574;55.878;2023-03-04T00:26:58;99200.78;;;-2.23;83.35
60089;BME280;45961;53.574;55.878;2023-03-04T00:27:59;99207.72;;;-2.19;83.26
60089;BME280;45961;53.574;55.878;2023-03-04T00:29:00;99207.47;;;-2.25;83.25
60089;BME280;45961;53.574;55.878;2023-03-04T00:30:02;99206.88;;;-2.19;83.39
60089;BME280;45961;53.574;55.878;2023-03-04T00:31:04;99188.66;;;-2.30;83.17
60089;BME280;45961;53.574;55.878;2023-03-04T00:32:05;99204.66;;;-2.12;83.23
60089;BME280;45961;53.574;55.878;2023-03-04T00:33:06;99213.19;;;-2.10;83.18
60089;BME280;45961;53.574;55.878;2023-03-04T00:34:08;99198.59;;;-2.15;83.27
60089;BME280;45961;53.574;55.878;2023-03-04T00:35:09;99207.38;;;-2.07;83.27
60089;BME280;45961;53.574;55.878;2023-03-04T00:36:10;99208.31;;;-2.05;83.31
60089;BME280;45961;53.574;55.878;2023-03-04T00:37:11;99206.53;;;-2.08;83.22
60089;BME280;45961;53.574;55.878;2023-03-04T00:38:12;99213.66;;;-1.99;83.16
60089;BME280;45961;53.574;55.878;2023-03-04T00:39:14;99217.47;;;-2.09;83.15
60089;BME280;45961;53.574;55.878;2023-03-04T00:40:15;99226.94;;;-2.05;83.17
60089;BME280;45961;53.574;55.878;2023-03-04T00:41:16;99216.91;;;-2.02;83.00
60089;BME280;45961;53.574;55.878;2023-03-04T00:42:17;99210.84;;;-2.05;83.19
60089;BME280;45961;53.574;55.878;2023-03-04T00:43:18;99204.81;;;-2.09;83.18
60089;BME280;45961;53.574;55.878;2023-03-04T00:44:20;99214.59;;;-2.16;83.33
60089;BME280;45961;53.574;55.878;2023-03-04T00:45:21;99216.53;;;-2.11;83.48
60089;BME280;45961;53.574;55.878;2023-03-04T00:46:23;99219.41;;;-2.03;83.41
60089;BME280;45961;53.574;55.878;2023-03-04T00:47:25;99214.50;;;-1.99;83.40
60089;BME280;45961;53.574;55.878;2023-03-04T00:48:27;99213.47;;;-2.04;83.35
60089;BME280;45961;53.574;55.878;2023-03-04T00:49:28;99208.38;;;-2.04;83.33
60089;BME280;45961;53.574;55.878;2023-03-04T00:50:30;99208.53;;;-2.01;83.19
60089;BME280;45961;53.574;55.878;2023-03-04T00:51:33;99208.53;;;-2.01;83.11
60089;BME280;45961;53.574;55.878;2023-03-04T00:52:34;99201.19;;;-2.14;83.10
60089;BME280;45961;53.574;55.878;2023-03-04T00:53:35;99193.38;;;-2.18;83.37
60089;BME280;45961;53.574;55.878;2023-03-04T00:54:36;99209.94;;;-2.07;83.29
60089;BME280;45961;53.574;55.878;2023-03-04T00:55:37;99212.16;;;-1.94;83.24
60089;BME280;45961;53.574;55.878;2023-03-04T00:56:39;99209.31;;;-2.02;83.17
60089;BME280;45961;53.574;55.878;2023-03-04T00:57:40;99194.75;;;-2.06;83.22
60089;BME280;45961;53.574;55.878;2023-03-04T00:58:41;99204.22;;;-2.02;83.16
60089;BME280;45961;53.574;55.878;2023-03-04T00:59:42;99198.25;;;-2.04;83.33
60089;BME280;45961;53.574;55.878;2023-03-04T01:00:43;99204.44;;;-1.97;83.36
60089;BME280;45961;53.574;55.878;2023-03-04T01:01:44;99206.66;;;-2.05;83.35
60089;BME280;45961;53.574;55.878;2023-03-04T01:02:45;99210.97;;;-2.02;83.49
60089;BME280;45961;53.574;55.878;2023-03-04T01:03:47;99217.78;;;-2.01;83.41
60089;BME280;45961;53.574;55.878;2023-03-04T01:04:48;99208.97;;;-2.09;83.69
60089;BME280;45961;53.574;55.878;2023-03-04T01:05:49;99210.06;;;-2.04;83.61
60089;BME280;45961;53.574;55.878;2023-03-04T01:06:51;99207.34;;;-2.09;83.68
60089;BME280;45961;53.574;55.878;2023-03-04T01:07:52;99200.25;;;-2.16;83.91
60089;BME280;45961;53.574;55.878;2023-03-04T01:08:54;99206.34;;;-2.12;84.01
60089;BME280;45961;53.574;55.878;2023-03-04T01:09:55;99214.13;;;-2.08;84.17
60089;BME280;45961;53.574;55.878;2023-03-04T01:10:57;99206.72;;;-2.03;84.16
60089;BME280;45961;53.574;55.878;2023-03-04T01:11:59;99206.91;;;-1.99;84.22
60089;BME280;45961;53.574;55.878;2023-03-04T01:13:00;99205.00;;;-2.04;84.17
60089;BME280;45961;53.574;55.878;2023-03-04T01:14:01;99200.41;;;-2.13;84.14
60089;BME280;45961;53.574;55.878;2023-03-04T01:15:02;99203.59;;;-2.17;84.39
60089;BME280;45961;53.574;55.878;2023-03-04T01:16:07;99201.47;;;-2.08;84.54
60089;BME280;45961;53.574;55.878;2023-03-04T01:17:08;99208.59;;;-2.18;84.74
60089;BME280;45961;53.574;55.878;2023-03-04T01:18:09;99194.25;;;-2.18;84.99
60089;BME280;45961;53.574;55.878;2023-03-04T01:19:10;99197.53;;;-2.20;85.02
60089;BME280;45961;53.574;55.878;2023-03-04T01:20:11;99208.00;;;-2.13;85.32
60089;BME280;45961;53.574;55.878;2023-03-04T01:21:13;99192.66;;;-2.16;85.30
60089;BME280;45961;53.574;55.878;2023-03-04T01:22:14;99204.19;;;-2.22;85.57
60089;BME280;45961;53.574;55.878;2023-03-04T01:23:16;99205.25;;;-2.17;85.71
60089;BME280;45961;53.574;55.878;2023-03-04T01:24:17;99193.72;;;-2.30;85.97
60089;BME280;45961;53.574;55.878;2023-03-04T01:25:18;99199.78;;;-2.27;86.19
60089;BME280;45961;53.574;55.878;2023-03-04T01:26:19;99189.78;;;-2.24;86.34
60089;BME280;45961;53.574;55.878;2023-03-04T01:27:21;99191.84;;;-2.15;86.34
60089;BME280;45961;53.574;55.878;2023-03-04T01:28:22;99196.38;;;-2.08;86.59
60089;BME280;45961;53.574;55.878;2023-03-04T01:29:23;99201.69;;;-2.02;86.59
60089;BME280;45961;53.574;55.878;2023-03-04T01:30:24;99188.44;;;-2.15;86.47
60089;BME280;45961;53.574;55.878;2023-03-04T01:31:25;99198.25;;;-2.04;86.79
60089;BME280;45961;53.574;55.878;2023-03-04T01:32:26;99198.97;;;-2.06;86.92
60089;BME280;45961;53.574;55.878;2023-03-04T01:33:28;99196.56;;;-2.03;86.97
60089;BME280;45961;53.574;55.878;2023-03-04T01:34:28;99196.72;;;-2.00;87.16
60089;BME280;45961;53.574;55.878;2023-03-04T01:35:31;99201.88;;;-1.97;87.14
60089;BME280;45961;53.574;55.878;2023-03-04T01:36:31;99190.69;;;-2.02;87.45
60089;BME280;45961;53.574;55.878;2023-03-04T01:37:33;99198.44;;;-1.99;87.48
60089;BME280;45961;53.574;55.878;2023-03-04T01:38:33;99198.44;;;-1.99;87.72
60089;BME280;45961;53.574;55.878;2023-03-04T01:39:35;99200.66;;;-2.07;87.90
60089;BME280;45961;53.574;55.878;2023-03-04T01:40:36;99197.50;;;-2.01;88.20
60089;BME280;45961;53.574;55.878;2023-03-04T01:41:38;99194.72;;;-2.07;88.42
60089;BME280;45961;53.574;55.878;2023-03-04T01:42:39;99191.44;;;-2.05;88.60
60089;BME280;45961;53.574;55.878;2023-03-04T01:43:40;99189.66;;;-2.07;88.76
60089;BME280;45961;53.574;55.878;2023-03-04T01:44:42;99194.53;;;-2.12;89.17
60089;BME280;45961;53.574;55.878;2023-03-04T01:45:43;99192.78;;;-2.13;89.25
60089;BME280;45961;53.574;55.878;2023-03-04T01:46:50;99193.53;;;-2.15;89.65
60089;BME280;45961;53.574;55.878;2023-03-04T01:47:52;99193.47;;;-2.17;89.94
60089;BME280;45961;53.574;55.878;2023-03-04T01:48:53;99180.00;;;-2.35;90.75
60089;BME280;45961;53.574;55.878;2023-03-04T01:49:55;99190.78;;;-2.20;90.81
60089;BME280;45961;53.574;55.878;2023-03-04T01:50:56;99189.78;;;-2.24;90.98
60089;BME280;45961;53.574;55.878;2023-03-04T01:51:59;99189.59;;;-2.09;91.21
60089;BME280;45961;53.574;55.878;2023-03-04T01:53:01;99186.09;;;-2.11;91.35
60089;BME280;45961;53.574;55.878;2023-03-04T01:54:02;99181.53;;;-2.19;91.63
60089;BME280;45961;53.574;55.878;2023-03-04T01:55:10;99184.25;;;-2.15;92.02
60089;BME280;45961;53.574;55.878;2023-03-04T01:56:15;99190.25;;;-2.13;92.01
60089;BME280;45961;53.574;55.878;2023-03-04T01:57:21;99185.09;;;-2.14;92.51
60089;BME280;45961;53.574;55.878;2023-03-04T01:58:28;99188.66;;;-2.11;92.39
60089;BME280;45961;53.574;55.878;2023-03-04T01:59:30;99173.25;;;-2.15;92.64
60089;BME280;45961;53.574;55.878;2023-03-04T02:00:32;99195.91;;;-1.99;92.70
60089;BME280;45961;53.574;55.878;2023-03-04T02:01:35;99197.03;;;-1.92;92.85
60089;BME280;45961;53.574;55.878;2023-03-04T02:02:39;99193.81;;;-1.88;92.77
60089;BME280;45961;53.574;55.878;2023-03-04T02:03:40;99182.50;;;-1.96;92.92
60089;BME280;45961;53.574;55.878;2023-03-04T02:04:41;99186.75;;;-1.95;92.94
60089;BME280;45961;53.574;55.878;2023-03-04T02:05:45;99173.75;;;-2.03;92.94
60089;BME280;45961;53.574;55.878;2023-03-04T02:06:47;99187.13;;;-1.86;93.20
60089;BME280;45961;53.574;55.878;2023-03-04T02:07:49;99192.97;;;-1.89;93.08
60089;BME280;45961;53.574;55.878;2023-03-04T02:08:51;99191.38;;;-1.85;93.32
60089;BME280;45961;53.574;55.878;2023-03-04T02:09:52;99189.13;;;-1.79;93.30
60089;BME280;45961;53.574;55.878;2023-03-04T02:10:54;99184.53;;;-1.88;93.34
60089;BME280;45961;53.574;55.878;2023-03-04T02:12:15;99186.53;;;-1.81;93.43
60089;BME280;45961;53.574;55.878;2023-03-04T02:13:18;99183.91;;;-1.82;93.51
60089;BME280;45961;53.574;55.878;2023-03-04T02:14:19;99187.59;;;-1.76;93.60
60089;BME280;45961;53.574;55.878;2023-03-04T02:15:21;99191.91;;;-1.73;93.50
60089;BME280;45961;53.574;55.878;2023-03-04T02:16:22;99184.28;;;-1.73;93.61
60089;BME280;45961;53.574;55.878;2023-03-04T02:17:24;99182.94;;;-1.65;93.64
60089;BME280;45961;53.574;55.878;2023-03-04T02:18:25;99186.03;;;-1.72;93.35
60089;BME280;45961;53.574;55.878;2023-03-04T02:19:52;99186.81;;;-1.73;93.47
60089;BME280;45961;53.574;55.878;2023-03-04T02:21:20;99183.69;;;-1.67;93.63
60089;BME280;45961;53.574;55.878;2023-03-04T02:22:23;99182.75;;;-1.69;93.72
60089;BME280;45961;53.574;55.878;2023-03-04T02:23:25;99181.06;;;-1.69;93.63
60089;BME280;45961;53.574;55.878;2023-03-04T02:24:40;99181.19;;;-1.66;93.67
60089;BME280;45961;53.574;55.878;2023-03-04T02:26:15;99179.53;;;-1.65;93.73
60089;BME280;45961;53.574;55.878;2023-03-04T02:27:20;99176.13;;;-1.66;93.84
60089;BME280;45961;53.574;55.878;2023-03-04T02:28:22;99177.13;;;-1.62;93.82
60089;BME280;45961;53.574;55.878;2023-03-04T02:29:23;99167.53;;;-1.69;93.76
60089;BME280;45961;53.574;55.878;2023-03-04T02:30:24;99179.44;;;-1.68;93.97
60089;BME280;45961;53.574;55.878;2023-03-04T02:31:38;99173.03;;;-1.59;94.00
60089;BME280;45961;53.574;55.878;2023-03-04T02:32:40;99150.53;;;-1.72;93.75
60089;BME280;45961;53.574;55.878;2023-03-04T02:33:41;99175.41;;;-1.63;93.87
60089;BME280;45961;53.574;55.878;2023-03-04T02:34:46;99186.78;;;-1.54;93.73
60089;BME280;45961;53.574;55.878;2023-03-04T02:35:48;99149.84;;;-1.68;93.86
60089;BME280;45961;53.574;55.878;2023-03-04T02:36:51;99188.63;;;-1.50;93.76
60089;BME280;45961;53.574;55.878;2023-03-04T02:37:52;99186.16;;;-1.48;93.65
60089;BME280;45961;53.574;55.878;2023-03-04T02:38:59;99186.00;;;-1.53;93.65
60089;BME280;45961;53.574;55.878;2023-03-04T02:40:00;99184.81;;;-1.61;93.56
60089;BME280;45961;53.574;55.878;2023-03-04T02:41:02;99173.59;;;-1.66;93.75
60089;BME280;45961;53.574;55.878;2023-03-04T02:42:04;99173.91;;;-1.58;93.73
60089;BME280;45961;53.574;55.878;2023-03-04T02:43:10;99181.81;;;-1.51;93.72
60089;BME280;45961;53.574;55.878;2023-03-04T02:45:48;99187.03;;;-1.47;93.62
60089;BME280;45961;53.574;55.878;2023-03-04T02:46:50;99172.22;;;-1.58;93.38
60089;BME280;45961;53.574;55.878;2023-03-04T02:47:51;99176.56;;;-1.55;93.44
60089;BME280;45961;53.574;55.878;2023-03-04T02:48:53;99178.47;;;-1.50;93.46
60089;BME280;45961;53.574;55.878;2023-03-04T02:49:55;99160.34;;;-1.59;93.39
60089;BME280;45961;53.574;55.878;2023-03-04T02:50:56;99177.38;;;-1.56;93.17
60089;BME280;45961;53.574;55.878;2023-03-04T02:52:07;99180.69;;;-1.57;93.35
60089;BME280;45961;53.574;55.878;2023-03-04T02:53:08;99177.56;;;-1.52;93.17
60089;BME280;45961;53.574;55.878;2023-03-04T02:54:16;99176.63;;;-1.54;93.06
60089;BME280;45961;53.574;55.878;2023-03-04T02:55:17;99164.22;;;-1.68;92.89
60089;BME280;45961;53.574;55.878;2023-03-04T02:56:19;99175.44;;;-1.62;93.24
60089;BME280;45961;53.574;55.878;2023-03-04T02:57:20;99164.25;;;-1.67;93.17
60089;BME280;45961;53.574;55.878;2023-03-04T02:58:26;99172.53;;;-1.71;93.42
60089;BME280;45961;53.574;55.878;2023-03-04T02:59:27;99161.34;;;-1.76;93.41
60089;BME280;45961;53.574;55.878;2023-03-04T03:00:28;99179.47;;;-1.67;93.36
60089;BME280;45961;53.574;55.878;2023-03-04T03:01:30;99172.50;;;-1.72;93.33
60089;BME280;45961;53.574;55.878;2023-03-04T03:02:31;99180.47;;;-1.63;93.46
60089;BME280;45961;53.574;55.878;2023-03-04T03:03:32;99172.13;;;-1.61;93.48
60089;BME280;45961;53.574;55.878;2023-03-04T03:04:35;99179.47;;;-1.67;93.61
60089;BME280;45961;53.574;55.878;2023-03-04T03:05:41;99170.81;;;-1.72;93.51
60089;BME280;45961;53.574;55.878;2023-03-04T03:06:42;99176.09;;;-1.67;93.63
60089;BME280;45961;53.574;55.878;2023-03-04T03:07:47;99125.28;;;-1.90;93.59
60089;BME280;45961;53.574;55.878;2023-03-04T03:08:48;99173.91;;;-1.58;93.63
60089;BME280;45961;53.574;55.878;2023-03-04T03:09:50;99169.81;;;-1.55;93.71
60089;BME280;45961;53.574;55.878;2023-03-04T03:10:52;99168.47;;;-1.67;93.52
60089;BME280;45961;53.574;55.878;2023-03-04T03:11:53;99157.16;;;-1.76;93.63
60089;BME280;45961;53.574;55.878;2023-03-04T03:12:55;99172.78;;;-1.65;93.68
60089;BME280;45961;53.574;55.878;2023-03-04T03:13:56;99162.41;;;-1.71;93.81
60089;BME280;45961;53.574;55.878;2023-03-04T03:14:57;99170.19;;;-1.66;93.91
60089;BME280;45961;53.574;55.878;2023-03-04T03:15:59;99179.47;;;-1.67;93.95
60089;BME280;45961;53.574;55.878;2023-03-04T03:17:00;99150.53;;;-1.72;94.14
60089;BME280;45961;53.574;55.878;2023-03-04T03:18:01;99166.13;;;-1.63;93.99
60089;BME280;45961;53.574;55.878;2023-03-04T03:19:02;99159.38;;;-1.62;93.88
60089;BME280;45961;53.574;55.878;2023-03-04T03:20:03;99167.66;;;-1.66;93.77
60089;BME280;45961;53.574;55.878;2023-03-04T03:21:07;99176.13;;;-1.66;93.84
60089;BME280;45961;53.574;55.878;2023-03-04T03:22:08;99172.69;;;-1.68;93.68
60089;BME280;45961;53.574;55.878;2023-03-04T03:23:09;99172.59;;;-1.69;93.92
60089;BME280;45961;53.574;55.878;2023-03-04T03:24:10;99170.63;;;-1.77;93.91
60089;BME280;45961;53.574;55.878;2023-03-04T03:25:13;99170.88;;;-1.70;93.88
60089;BME280;45961;53.574;55.878;2023-03-04T03:26:15;99165.84;;;-1.69;93.90
60089;BME280;45961;53.574;55.878;2023-03-04T03:27:16;99162.41;;;-1.71;94.04
60089;BME280;45961;53.574;55.878;2023-03-04T03:28:17;99169.88;;;-1.74;93.90
60089;BME280;45961;53.574;55.878;2023-03-04T03:29:18;99155.34;;;-1.78;94.04
60089;BME280;45961;53.574;55.878;2023-03-04T03:30:19;99166.34;;;-1.78;93.76
60089;BME280;45961;53.574;55.878;2023-03-04T03:31:20;99169.38;;;-1.65;93.68
60089;BME280;45961;53.574;55.878;2023-03-04T03:32:21;99173.53;;;-1.67;93.50
60089;BME280;45961;53.574;55.878;2023-03-04T03:33:25;99173.09;;;-1.78;93.51
60089;BME280;45961;53.574;55.878;2023-03-04T03:34:27;99175.13;;;-1.69;93.17
60089;BME280;45961;53.574;55.878;2023-03-04T03:35:28;99176.25;;;-1.63;93.47
60089;BME280;45961;53.574;55.878;2023-03-04T03:36:29;99184.72;;;-1.62;93.32
60089;BME280;45961;53.574;55.878;2023-03-04T03:37:30;99176.25;;;-1.63;93.33
60089;BME280;45961;53.574;55.878;2023-03-04T03:38:31;99174.94;;;-1.53;93.04
60089;BME280;45961;53.574;55.878;2023-03-04T03:39:32;99188.53;;;-1.53;93.02
60089;BME280;45961;53.574;55.878;2023-03-04T03:40:33;99191.25;;;-1.48;92.97
60089;BME280;45961;53.574;55.878;2023-03-04T03:41:34;99188.06;;;-1.42;92.74
60089;BME280;45961;53.574;55.878;2023-03-04T03:42:35;99186.75;;;-1.33;92.58
60089;BME280;45961;53.574;55.878;2023-03-04T03:43:35;99184.16;;;-1.34;92.52
60089;BME280;45961;53.574;55.878;2023-03-04T03:44:36;99191.66;;;-1.37;92.24
60089;BME280;45961;53.574;55.878;2023-03-04T03:45:38;99192.28;;;-1.43;92.24
60089;BME280;45961;53.574;55.878;2023-03-04T03:46:39;99186.72;;;-1.34;92.26
60089;BME280;45961;53.574;55.878;2023-03-04T03:47:52;99185.66;;;-1.39;91.94
60089;BME280;45961;53.574;55.878;2023-03-04T03:48:56;99195.69;;;-1.42;91.97
60089;BME280;45961;53.574;55.878;2023-03-04T03:49:57;99189.75;;;-1.43;92.10
60089;BME280;45961;53.574;55.878;2023-03-04T03:50:58;99185.91;;;-1.33;92.09
60089;BME280;45961;53.574;55.878;2023-03-04T03:51:59;99188.06;;;-1.21;92.27
60089;BME280;45961;53.574;55.878;2023-03-04T03:53:20;99193.88;;;-1.24;92.38
60089;BME280;45961;53.574;55.878;2023-03-04T03:54:21;99196.81;;;-1.13;92.37
60089;BME280;45961;53.574;55.878;2023-03-04T03:55:22;99198.28;;;-1.20;91.97
60089;BME280;45961;53.574;55.878;2023-03-04T03:56:23;99199.06;;;-1.21;91.57
60089;BME280;45961;53.574;55.878;2023-03-04T03:57:24;99202.88;;;-1.32;91.58
60089;BME280;45961;53.574;55.878;2023-03-04T03:58:25;99203.91;;;-1.27;91.69
60089;BME280;45961;53.574;55.878;2023-03-04T03:59:26;99202.13;;;-1.30;91.55
60089;BME280;45961;53.574;55.878;2023-03-04T04:00:27;99202.50;;;-1.20;91.41
60089;BME280;45961;53.574;55.878;2023-03-04T04:01:28;99207.66;;;-1.17;91.66
60089;BME280;45961;53.574;55.878;2023-03-04T04:02:29;99205.72;;;-1.25;91.52
60089;BME280;45961;53.574;55.878;2023-03-04T04:03:30;99196.66;;;-1.18;91.42
60089;BME280;45961;53.574;55.878;2023-03-04T04:04:31;99203.47;;;-1.17;91.16
60089;BME280;45961;53.574;55.878;2023-03-04T04:05:32;99203.47;;;-1.17;91.12
60089;BME280;45961;53.574;55.878;2023-03-04T04:06:33;99201.13;;;-1.12;91.33
60089;BME280;45961;53.574;55.878;2023-03-04T04:07:35;99208.06;;;-1.08;91.20
60089;BME280;45961;53.574;55.878;2023-03-04T04:08:36;99211.50;;;-1.06;91.01
60089;BME280;45961;53.574;55.878;2023-03-04T04:09:40;99198.38;;;-1.17;91.08
60089;BME280;45961;53.574;55.878;2023-03-04T04:10:42;99207.28;;;-1.06;91.19
60089;BME280;45961;53.574;55.878;2023-03-04T04:11:43;99197.00;;;-1.09;91.01
60089;BME280;45961;53.574;55.878;2023-03-04T04:12:44;99214.22;;;-1.02;90.81
60089;BME280;45961;53.574;55.878;2023-03-04T04:13:45;99205.13;;;-0.96;90.94
60089;BME280;45961;53.574;55.878;2023-03-04T04:14:46;99214.75;;;-0.88;90.47
60089;BME280;45961;53.574;55.878;2023-03-04T04:15:47;99215.69;;;-0.86;90.65
60089;BME280;45961;53.574;55.878;2023-03-04T04:16:47;99219.59;;;-0.94;90.58
60089;BME280;45961;53.574;55.878;2023-03-04T04:17:48;99219.88;;;-0.86;90.58
60089;BME280;45961;53.574;55.878;2023-03-04T04:18:49;99218.22;;;-0.86;90.44
60089;BME280;45961;53.574;55.878;2023-03-04T04:19:50;99217.34;;;-0.86;90.68
60089;BME280;45961;53.574;55.878;2023-03-04T04:20:52;99216.75;;;-1.02;90.40
60089;BME280;45961;53.574;55.878;2023-03-04T04:21:53;99218.97;;;-0.88;90.51
60089;BME280;45961;53.574;55.878;2023-03-04T04:22:54;99219.16;;;-0.84;90.35
60089;BME280;45961;53.574;55.878;2023-03-04T04:23:55;99218.97;;;-0.88;90.37
60089;BME280;45961;53.574;55.878;2023-03-04T04:24:56;99215.75;;;-0.84;90.55
60089;BME280;45961;53.574;55.878;2023-03-04T04:25:57;99213.00;;;-0.89;90.41
60089;BME280;45961;53.574;55.878;2023-03-04T04:26:58;99207.94;;;-0.89;90.45
60089;BME280;45961;53.574;55.878;2023-03-04T04:27:59;99218.38;;;-0.81;90.58
60089;BME280;45961;53.574;55.878;2023-03-04T04:29:00;99212.53;;;-0.80;90.56
60089;BME280;45961;53.574;55.878;2023-03-04T04:30:02;99212.22;;;-0.88;90.29
60089;BME280;45961;53.574;55.878;2023-03-04T04:31:06;99199.56;;;-0.86;90.54
60089;BME280;45961;53.574;55.878;2023-03-04T04:32:08;99198.88;;;-0.82;90.39
60089;BME280;45961;53.574;55.878;2023-03-04T04:33:12;99196.00;;;-0.91;90.58
60089;BME280;45961;53.574;55.878;2023-03-04T04:34:13;99193.38;;;-0.93;90.47
60089;BME280;45961;53.574;55.878;2023-03-04T04:35:14;99192.50;;;-0.93;90.42
60089;BME280;45961;53.574;55.878;2023-03-04T04:36:15;99179.06;;;-1.13;90.59
60089;BME280;45961;53.574;55.878;2023-03-04T04:37:17;99193.84;;;-1.03;90.74
60089;BME280;45961;53.574;55.878;2023-03-04T04:38:18;99196.97;;;-1.10;90.85
60089;BME280;45961;53.574;55.878;2023-03-04T04:39:19;99194.03;;;-0.98;91.12
60089;BME280;45961;53.574;55.878;2023-03-04T04:40:20;99204.44;;;-0.92;91.00
60089;BME280;45961;53.574;55.878;2023-03-04T04:41:27;99198.41;;;-0.94;90.82
60089;BME280;45961;53.574;55.878;2023-03-04T04:42:29;99204.91;;;-0.80;90.79
60089;BME280;45961;53.574;55.878;2023-03-04T04:43:30;99207.06;;;-0.89;90.56
60089;BME280;45961;53.574;55.878;2023-03-04T04:44:31;99203.06;;;-0.84;90.47
60089;BME280;45961;53.574;55.878;2023-03-04T04:45:33;99203.84;;;-0.85;90.48
60089;BME280;45961;53.574;55.878;2023-03-04T04:46:34;99189.53;;;-0.83;90.35
60089;BME280;45961;53.574;55.878;2023-03-04T04:47:35;99204.81;;;-0.82;90.44
60089;BME280;45961;53.574;55.878;2023-03-04T04:48:36;99194.94;;;-0.74;90.37
60089;BME280;45961;53.574;55.878;2023-03-04T04:49:37;99189.44;;;-0.85;90.33
60089;BME280;45961;53.574;55.878;2023-03-04T04:50:38;99189.81;;;-0.76;90.02
60089;BME280;45961;53.574;55.878;2023-03-04T04:51:39;99192.34;;;-0.76;89.95
60089;BME280;45961;53.574;55.878;2023-03-04T04:52:40;99197.19;;;-0.82;89.78
60089;BME280;45961;53.574;55.878;2023-03-04T04:53:41;99197.44;;;-0.76;89.83
60089;BME280;45961;53.574;55.878;2023-03-04T04:54:42;99178.44;;;-0.85;89.87
60089;BME280;45961;53.574;55.878;2023-03-04T04:55:43;99212.84;;;-0.71;89.75
60089;BME280;45961;53.574;55.878;2023-03-04T04:56:44;99212.97;;;-0.68;89.42
60089;BME280;45961;53.574;55.878;2023-03-04T04:57:45;99204.78;;;-0.83;89.54
60089;BME280;45961;53.574;55.878;2023-03-04T04:58:47;99218.63;;;-0.75;89.55
60089;BME280;45961;53.574;55.878;2023-03-04T04:59:48;99215.84;;;-0.81;89.50
60089;BME280;45961;53.574;55.878;2023-03-04T05:00:49;99216.81;;;-0.78;89.58
60089;BME280;45961;53.574;55.878;2023-03-04T05:01:50;99212.97;;;-0.68;89.73
60089;BME280;45961;53.574;55.878;2023-03-04T05:02:51;99219.19;;;-0.82;89.45
60089;BME280;45961;53.574;55.878;2023-03-04T05:03:52;99210.75;;;-0.81;89.47
60089;BME280;45961;53.574;55.878;2023-03-04T05:04:55;99221.16;;;-0.75;89.37
60089;BME280;45961;53.574;55.878;2023-03-04T05:05:56;99219.63;;;-0.71;89.48
60089;BME280;45961;53.574;55.878;2023-03-04T05:06:57;99219.91;;;-0.64;89.31
60089;BME280;45961;53.574;55.878;2023-03-04T05:07:58;99215.03;;;-0.58;89.62
60089;BME280;45961;53.574;55.878;2023-03-04T05:08:59;99204.88;;;-0.58;89.83
60089;BME280;45961;53.574;55.878;2023-03-04T05:10:03;99212.97;;;-0.68;89.41
60089;BME280;45961;53.574;55.878;2023-03-04T05:11:07;99209.63;;;-0.67;89.28
60089;BME280;45961;53.574;55.878;2023-03-04T05:12:08;99215.53;;;-0.68;89.20
60089;BME280;45961;53.574;55.878;2023-03-04T05:13:09;99208.88;;;-0.64;89.23
60089;BME280;45961;53.574;55.878;2023-03-04T05:14:10;99217.00;;;-0.73;89.18
60089;BME280;45961;53.574;55.878;2023-03-04T05:15:11;99222.25;;;-0.68;89.38
60089;BME280;45961;53.574;55.878;2023-03-04T05:16:13;99212.72;;;-0.74;89.44
60089;BME280;45961;53.574;55.878;2023-03-04T05:17:14;99213.16;;;-0.63;89.31
60089;BME280;45961;53.574;55.878;2023-03-04T05:18:15;99209.63;;;-0.67;89.56
60089;BME280;45961;53.574;55.878;2023-03-04T05:19:17;99186.47;;;-0.75;89.48
60089;BME280;45961;53.574;55.878;2023-03-04T05:20:18;99221.63;;;-0.63;89.57
60089;BME280;45961;53.574;55.878;2023-03-04T05:21:19;99208.22;;;-0.59;89.36
60089;BME280;45961;53.574;55.878;2023-03-04T05:22:20;99213.88;;;-0.66;89.24
60089;BME280;45961;53.574;55.878;2023-03-04T05:23:22;99217.84;;;-0.72;89.39
60089;BME280;45961;53.574;55.878;2023-03-04T05:24:23;99213.88;;;-0.66;89.55
60089;BME280;45961;53.574;55.878;2023-03-04T05:25:24;99206.97;;;-0.70;89.36
60089;BME280;45961;53.574;55.878;2023-03-04T05:26:25;99213.16;;;-0.63;89.58